createdAt,value
2019-05-07T00:00:07.160Z,78.30
2019-05-07T00:10:43.405Z,80.60
2019-05-07T00:15:47.983Z,80.00
2019-05-07T00:20:52.996Z,80.40
2019-05-07T00:26:03.938Z,80.40
2019-05-07T00:31:12.323Z,80.60
2019-05-07T00:36:22.970Z,80.30
2019-05-07T00:41:42.566Z,80.70
2019-05-07T00:46:49.710Z,80.30
2019-05-07T00:51:56.738Z,80.90
2019-05-07T00:57:04.874Z,81.20
2019-05-07T01:02:12.768Z,80.90
2019-05-07T01:07:22.714Z,81.00
2019-05-07T01:12:28.235Z,81.20
2019-05-07T01:17:33.551Z,81.30
2019-05-07T01:22:38.358Z,81.40
2019-05-07T01:27:45.952Z,81.60
2019-05-07T01:33:02.758Z,82.30
2019-05-07T01:38:23.009Z,82.30
2019-05-07T01:43:27.776Z,82.30
2019-05-07T01:48:33.851Z,82.90
2019-05-07T01:53:43.034Z,82.90
2019-05-07T01:58:47.242Z,82.70
2019-05-07T02:04:13.900Z,83.30
2019-05-07T02:09:39.234Z,83.10
2019-05-07T02:14:43.661Z,83.30
2019-05-07T02:19:48.594Z,83.80
2019-05-07T02:24:54.474Z,83.20
2019-05-07T02:29:58.878Z,83.10
2019-05-07T02:35:06.572Z,83.60
2019-05-07T02:40:17.860Z,83.60
2019-05-07T02:45:34.100Z,83.70
2019-05-07T02:50:43.505Z,84.10
2019-05-07T02:55:52.800Z,83.70
2019-05-07T03:00:59.532Z,83.30
2019-05-07T03:06:13.277Z,82.90
2019-05-07T03:11:14.331Z,83.10
2019-05-07T03:16:37.362Z,82.80
2019-05-07T03:21:39.995Z,82.80
2019-05-07T03:26:46.400Z,82.90
2019-05-07T03:32:06.182Z,82.90
2019-05-07T03:37:13.545Z,82.90
2019-05-07T03:42:16.302Z,83.60
2019-05-07T03:47:33.346Z,84.20
2019-05-07T03:52:38.018Z,84.70
2019-05-07T03:57:44.260Z,84.80
2019-05-07T04:02:48.904Z,85.60
2019-05-07T04:07:54.620Z,85.80
2019-05-07T04:13:04.532Z,86.30
2019-05-07T04:18:12.852Z,86.80
2019-05-07T04:23:23.135Z,87.30
2019-05-07T04:28:34.308Z,88.00
2019-05-07T04:33:44.654Z,88.30
2019-05-07T04:38:48.365Z,88.40
2019-05-07T04:43:54.306Z,88.60
2019-05-07T04:49:03.279Z,88.40
2019-05-07T04:54:12.902Z,89.10
2019-05-07T04:59:20.318Z,88.80
2019-05-07T05:04:30.115Z,89.10
2019-05-07T05:09:32.904Z,88.40
2019-05-07T05:14:36.446Z,88.30
2019-05-07T05:19:40.714Z,88.10
2019-05-07T05:24:46.553Z,87.90
2019-05-07T05:29:52.047Z,87.60
2019-05-07T05:34:59.762Z,87.40
2019-05-07T05:40:08.992Z,87.20
2019-05-07T05:45:33.493Z,87.60
2019-05-07T05:50:54.408Z,86.70
2019-05-07T05:56:02.273Z,86.40
2019-05-07T06:01:14.065Z,86.60
2019-05-07T06:06:23.068Z,86.60
2019-05-07T06:11:45.350Z,86.50
2019-05-07T06:16:52.615Z,86.00
2019-05-07T06:22:02.103Z,85.50
2019-05-07T06:27:07.138Z,85.30
2019-05-07T06:32:13.016Z,84.10
2019-05-07T06:37:17.280Z,84.90
2019-05-07T06:42:25.673Z,83.70
2019-05-07T06:47:31.908Z,83.30
2019-05-07T06:52:35.893Z,82.20
2019-05-07T06:57:42.375Z,81.60
2019-05-07T07:02:52.468Z,81.90
2019-05-07T07:07:58.188Z,81.40
2019-05-07T07:13:02.514Z,81.20
2019-05-07T07:18:06.676Z,79.20
2019-05-07T07:23:11.806Z,78.10
2019-05-07T07:28:16.187Z,78.30
2019-05-07T07:33:22.513Z,77.40
2019-05-07T07:38:33.025Z,77.20
2019-05-07T07:43:37.410Z,76.10
2019-05-07T07:48:43.516Z,75.70
2019-05-07T07:53:47.572Z,73.80
2019-05-07T07:58:53.399Z,73.30
2019-05-07T08:03:57.604Z,72.30
2019-05-07T08:09:02.235Z,73.30
2019-05-07T08:14:07.676Z,72.60
2019-05-07T08:19:25.242Z,71.60
2019-05-07T08:24:31.891Z,70.10
2019-05-07T08:29:35.489Z,69.40
2019-05-07T08:34:42.812Z,69.50
2019-05-07T08:39:47.409Z,68.70
2019-05-07T08:44:53.277Z,69.00
2019-05-07T08:49:57.487Z,68.30
2019-05-07T08:55:02.229Z,65.10
2019-05-07T09:00:09.133Z,65.60
2019-05-07T09:05:13.336Z,65.60
2019-05-07T09:10:17.569Z,64.80
2019-05-07T09:15:22.670Z,64.00
2019-05-07T09:20:26.967Z,61.60
2019-05-07T09:25:32.851Z,60.50
2019-05-07T09:30:52.426Z,60.10
2019-05-07T09:35:56.784Z,59.50
2019-05-07T09:41:02.775Z,57.80
2019-05-07T09:46:07.451Z,57.40
2019-05-07T09:51:12.248Z,56.50
2019-05-07T09:56:16.730Z,57.50
2019-05-07T10:01:23.552Z,55.90
2019-05-07T10:06:27.468Z,55.00
2019-05-07T10:11:44.988Z,53.60
2019-05-07T10:17:03.345Z,52.20
2019-05-07T10:22:07.576Z,52.90
2019-05-07T10:27:12.662Z,51.20
2019-05-07T10:32:17.102Z,51.50
2019-05-07T10:37:21.473Z,49.70
2019-05-07T10:42:25.714Z,49.40
2019-05-07T10:47:46.883Z,50.00
2019-05-07T10:52:52.851Z,48.00
2019-05-07T10:57:57.236Z,46.60
2019-05-07T11:03:02.347Z,47.50
2019-05-07T11:08:06.922Z,46.20
2019-05-07T11:13:12.849Z,47.20
2019-05-07T11:18:18.729Z,47.10
2019-05-07T11:23:22.954Z,48.40
2019-05-07T11:28:27.197Z,49.40
2019-05-07T11:33:32.512Z,50.20
2019-05-07T11:38:37.014Z,51.90
2019-05-07T11:43:48.929Z,53.50
2019-05-07T11:48:57.510Z,52.90
2019-05-07T11:54:09.050Z,53.30
2019-05-07T11:59:13.636Z,53.30
2019-05-07T12:04:18.072Z,52.90
2019-05-07T12:09:22.282Z,53.30
2019-05-07T12:14:31.578Z,53.80
2019-05-07T12:19:33.078Z,53.20
2019-05-07T12:24:37.815Z,53.00
2019-05-07T12:29:42.429Z,53.20
2019-05-07T12:34:48.387Z,53.30
2019-05-07T12:39:52.854Z,54.00
2019-05-07T12:44:57.156Z,54.40
2019-05-07T12:50:01.450Z,54.10
2019-05-07T12:55:26.392Z,53.90
2019-05-07T13:00:44.504Z,53.40
2019-05-07T13:05:48.782Z,53.60
2019-05-07T13:10:52.996Z,52.80
2019-05-07T13:15:57.320Z,51.90
2019-05-07T13:21:02.389Z,52.00
2019-05-07T13:26:06.910Z,52.30
2019-05-07T13:31:12.548Z,51.10
2019-05-07T13:36:16.914Z,51.10
2019-05-07T13:41:28.788Z,50.70
2019-05-07T13:46:34.651Z,51.40
2019-05-07T13:51:38.930Z,51.20
2019-05-07T13:56:43.187Z,50.50
2019-05-07T14:01:51.729Z,50.30
2019-05-07T14:06:57.731Z,50.10
2019-05-07T14:12:02.110Z,48.60
2019-05-07T14:17:09.284Z,48.40
2019-05-07T14:22:18.413Z,46.90
2019-05-07T14:27:19.461Z,46.30
2019-05-07T14:32:31.426Z,45.10
2019-05-07T14:37:41.831Z,44.60
2019-05-07T14:42:47.858Z,44.90
2019-05-07T14:47:52.313Z,45.10
2019-05-07T14:52:56.601Z,45.00
2019-05-07T14:58:01.887Z,45.30
2019-05-07T15:03:06.320Z,44.80
2019-05-07T15:08:13.519Z,42.60
2019-05-07T15:13:16.552Z,42.00
2019-05-07T15:18:38.984Z,41.90
2019-05-07T15:23:43.224Z,41.90
2019-05-07T15:28:49.080Z,42.30
2019-05-07T15:33:53.316Z,43.30
2019-05-07T15:38:57.570Z,43.00
2019-05-07T15:44:02.684Z,43.80
2019-05-07T15:49:26.562Z,44.00
2019-05-07T15:54:36.872Z,43.40
2019-05-07T15:59:42.660Z,43.10
2019-05-07T16:04:46.998Z,42.00
2019-05-07T16:09:52.558Z,42.80
2019-05-07T16:14:57.035Z,42.60
2019-05-07T16:20:03.112Z,41.80
2019-05-07T16:25:07.505Z,41.70
2019-05-07T16:30:14.355Z,41.80
2019-05-07T16:35:18.709Z,41.80
2019-05-07T16:40:23.098Z,41.30
2019-05-07T16:45:27.327Z,41.50
2019-05-07T16:50:32.582Z,42.10
2019-05-07T16:55:39.782Z,42.50
2019-05-07T17:00:46.095Z,42.30
2019-05-07T17:05:52.372Z,43.20
2019-05-07T17:10:56.979Z,42.90
2019-05-07T17:16:03.322Z,43.00
2019-05-07T17:21:07.886Z,44.00
2019-05-07T17:26:12.170Z,43.50
2019-05-07T17:31:16.428Z,42.90
2019-05-07T17:36:22.449Z,42.90
2019-05-07T17:41:27.443Z,43.40
2019-05-07T17:46:32.405Z,44.20
2019-05-07T17:51:46.230Z,44.50
2019-05-07T17:56:52.549Z,44.20
2019-05-07T18:02:04.168Z,44.60
2019-05-07T18:07:08.409Z,45.50
2019-05-07T18:12:12.642Z,46.10
2019-05-07T18:17:18.485Z,46.30
2019-05-07T18:22:22.954Z,47.10
2019-05-07T18:27:28.720Z,46.40
2019-05-07T18:32:34.677Z,46.70
2019-05-07T18:37:42.130Z,47.40
2019-05-07T18:42:46.415Z,47.30
2019-05-07T18:47:51.733Z,48.10
2019-05-07T18:52:56.232Z,48.60
2019-05-07T18:58:02.639Z,49.50
2019-05-07T19:03:06.792Z,50.00
2019-05-07T19:08:12.738Z,50.20
2019-05-07T19:13:18.708Z,50.70
2019-05-07T19:18:23.054Z,50.90
2019-05-07T19:23:27.323Z,52.10
2019-05-07T19:28:32.896Z,51.80
2019-05-07T19:33:37.403Z,51.90
2019-05-07T19:38:42.136Z,52.10
2019-05-07T19:43:46.541Z,52.50
2019-05-07T19:48:52.060Z,52.90
2019-05-07T20:00:32.580Z,53.70
2019-05-07T20:05:46.408Z,54.20
2019-05-07T20:10:13.068Z,54.40
2019-05-07T20:21:26.064Z,55.10
2019-05-07T20:26:32.996Z,55.80
2019-05-07T20:31:39.686Z,56.20
2019-05-07T20:36:45.729Z,56.80
2019-05-07T20:41:57.466Z,57.20
2019-05-07T20:47:01.824Z,57.70
2019-05-07T20:52:10.094Z,58.30
2019-05-07T20:57:22.578Z,58.80
2019-05-07T21:02:41.787Z,58.60
2019-05-07T21:07:34.691Z,59.40
2019-05-07T21:12:39.104Z,59.60
2019-05-07T21:17:47.037Z,59.90
2019-05-07T21:22:52.073Z,60.00
2019-05-07T21:27:58.303Z,60.40
2019-05-07T21:33:08.380Z,60.80
2019-05-07T21:38:17.287Z,61.20
2019-05-07T21:43:25.898Z,61.40
2019-05-07T21:48:32.748Z,61.50
2019-05-07T21:53:42.979Z,61.60
2019-05-07T21:59:06.404Z,61.60
2019-05-07T22:04:23.270Z,61.50
2019-05-07T22:09:29.439Z,61.20
2019-05-07T22:14:39.469Z,61.40
2019-05-07T22:19:52.622Z,61.30
2019-05-07T22:24:59.648Z,61.20
2019-05-07T22:30:12.907Z,61.00
2019-05-07T22:35:24.079Z,61.10
2019-05-07T22:40:32.794Z,60.20
2019-05-07T22:45:45.324Z,61.50
2019-05-07T22:50:48.841Z,61.40
2019-05-07T22:55:56.623Z,61.40
2019-05-07T23:06:23.293Z,62.00
2019-05-07T23:11:28.605Z,62.20
2019-05-07T23:16:36.656Z,62.60
2019-05-07T23:21:42.571Z,62.80
2019-05-07T23:26:50.532Z,63.20
2019-05-07T23:31:55.401Z,63.40
2019-05-07T23:37:02.692Z,63.60
2019-05-07T23:42:18.596Z,63.90
2019-05-07T23:47:22.892Z,63.90
2019-05-07T23:52:28.843Z,64.10
2019-05-07T23:57:34.235Z,64.40
